sensor_id;sensor_type;location;lat;lon;timestamp;temperature;humidity
14471;DHT22;7321;50.802;4.336;2023-02-03T00:00:37;11.30;99.90
14471;DHT22;7321;50.802;4.336;2023-02-03T00:03:03;11.30;99.90
14471;DHT22;7321;50.802;4.336;2023-02-03T00:05:30;11.10;99.90
14471;DHT22;7321;50.802;4.336;2023-02-03T00:07:56;11.10;99.90
14471;DHT22;7321;50.802;4.336;2023-02-03T00:10:22;11.10;99.90
14471;DHT22;7321;50.802;4.336;2023-02-03T00:12:49;11.10;99.90
14471;DHT22;7321;50.802;4.336;2023-02-03T00:15:16;11.10;99.90
14471;DHT22;7321;50.802;4.336;2023-02-03T00:17:42;11.10;99.90
14471;DHT22;7321;50.802;4.336;2023-02-03T00:20:09;11.00;99.90
14471;DHT22;7321;50.802;4.336;2023-02-03T00:22:35;11.10;99.90
14471;DHT22;7321;50.802;4.336;2023-02-03T00:25:00;11.10;99.90
14471;DHT22;7321;50.802;4.336;2023-02-03T00:27:26;11.10;99.90
14471;DHT22;7321;50.802;4.336;2023-02-03T00:29:52;11.10;99.90
14471;DHT22;7321;50.802;4.336;2023-02-03T00:32:18;11.20;99.90
14471;DHT22;7321;50.802;4.336;2023-02-03T00:34:44;11.20;99.90
14471;DHT22;7321;50.802;4.336;2023-02-03T00:37:11;11.10;99.90
14471;DHT22;7321;50.802;4.336;2023-02-03T00:39:37;11.20;99.90
14471;DHT22;7321;50.802;4.336;2023-02-03T00:42:04;11.10;99.90
14471;DHT22;7321;50.802;4.336;2023-02-03T00:44:30;11.10;99.90
14471;DHT22;7321;50.802;4.336;2023-02-03T00:46:56;11.10;99.90
14471;DHT22;7321;50.802;4.336;2023-02-03T00:49:22;11.20;99.90
14471;DHT22;7321;50.802;4.336;2023-02-03T00:51:48;11.10;99.90
14471;DHT22;7321;50.802;4.336;2023-02-03T00:54:13;11.10;99.90
14471;DHT22;7321;50.802;4.336;2023-02-03T00:56:39;11.00;99.90
14471;DHT22;7321;50.802;4.336;2023-02-03T00:59:05;11.00;99.90
14471;DHT22;7321;50.802;4.336;2023-02-03T01:01:35;11.00;99.90
14471;DHT22;7321;50.802;4.336;2023-02-03T01:04:00;10.90;99.90
14471;DHT22;7321;50.802;4.336;2023-02-03T01:06:27;10.90;99.90
14471;DHT22;7321;50.802;4.336;2023-02-03T01:08:53;11.00;99.90
14471;DHT22;7321;50.802;4.336;2023-02-03T01:11:22;11.20;99.90
14471;DHT22;7321;50.802;4.336;2023-02-03T01:13:49;11.20;99.90
14471;DHT22;7321;50.802;4.336;2023-02-03T01:16:22;11.10;99.90
14471;DHT22;7321;50.802;4.336;2023-02-03T01:18:50;11.20;99.90
14471;DHT22;7321;50.802;4.336;2023-02-03T01:21:22;11.20;99.90
14471;DHT22;7321;50.802;4.336;2023-02-03T01:23:49;11.20;99.90
14471;DHT22;7321;50.802;4.336;2023-02-03T01:26:18;11.10;99.90
14471;DHT22;7321;50.802;4.336;2023-02-03T01:28:54;11.10;99.90
14471;DHT22;7321;50.802;4.336;2023-02-03T01:31:28;11.10;99.90
14471;DHT22;7321;50.802;4.336;2023-02-03T01:33:55;11.10;99.90
14471;DHT22;7321;50.802;4.336;2023-02-03T01:36:23;11.00;99.90
14471;DHT22;7321;50.802;4.336;2023-02-03T01:38:50;11.00;99.90
14471;DHT22;7321;50.802;4.336;2023-02-03T01:41:21;11.10;99.90
14471;DHT22;7321;50.802;4.336;2023-02-03T01:43:50;11.20;99.90
14471;DHT22;7321;50.802;4.336;2023-02-03T01:46:36;11.20;99.90
14471;DHT22;7321;50.802;4.336;2023-02-03T01:49:06;11.20;99.90
14471;DHT22;7321;50.802;4.336;2023-02-03T01:51:33;11.30;99.90
14471;DHT22;7321;50.802;4.336;2023-02-03T01:54:00;11.20;99.90
14471;DHT22;7321;50.802;4.336;2023-02-03T01:56:30;11.20;99.90
14471;DHT22;7321;50.802;4.336;2023-02-03T01:58:57;11.10;99.90
14471;DHT22;7321;50.802;4.336;2023-02-03T02:01:26;11.20;99.90
14471;DHT22;7321;50.802;4.336;2023-02-03T02:03:55;11.20;99.90
14471;DHT22;7321;50.802;4.336;2023-02-03T02:06:22;11.20;99.90
14471;DHT22;7321;50.802;4.336;2023-02-03T02:08:50;11.10;99.90
14471;DHT22;7321;50.802;4.336;2023-02-03T02:11:17;11.10;99.90
14471;DHT22;7321;50.802;4.336;2023-02-03T02:13:46;11.10;99.90
14471;DHT22;7321;50.802;4.336;2023-02-03T02:29:58;11.20;99.90
14471;DHT22;7321;50.802;4.336;2023-02-03T02:32:50;11.30;99.90
14471;DHT22;7321;50.802;4.336;2023-02-03T02:40:48;11.20;99.90
14471;DHT22;7321;50.802;4.336;2023-02-03T02:43:29;11.10;99.90
14471;DHT22;7321;50.802;4.336;2023-02-03T02:46:07;11.20;99.90
14471;DHT22;7321;50.802;4.336;2023-02-03T02:49:11;11.20;99.90
14471;DHT22;7321;50.802;4.336;2023-02-03T02:51:38;11.20;99.90
14471;DHT22;7321;50.802;4.336;2023-02-03T02:54:07;11.10;99.90
14471;DHT22;7321;50.802;4.336;2023-02-03T02:56:37;11.10;99.90
14471;DHT22;7321;50.802;4.336;2023-02-03T02:59:04;11.30;99.90
14471;DHT22;7321;50.802;4.336;2023-02-03T03:01:31;11.30;99.90
14471;DHT22;7321;50.802;4.336;2023-02-03T03:03:59;11.30;99.90
14471;DHT22;7321;50.802;4.336;2023-02-03T03:06:32;11.30;99.90
14471;DHT22;7321;50.802;4.336;2023-02-03T03:09:09;11.30;99.90
14471;DHT22;7321;50.802;4.336;2023-02-03T03:11:46;11.30;99.90
14471;DHT22;7321;50.802;4.336;2023-02-03T03:14:15;11.30;99.90
14471;DHT22;7321;50.802;4.336;2023-02-03T03:16:47;11.40;99.90
14471;DHT22;7321;50.802;4.336;2023-02-03T03:19:19;11.30;99.90
14471;DHT22;7321;50.802;4.336;2023-02-03T03:21:54;11.30;99.90
14471;DHT22;7321;50.802;4.336;2023-02-03T03:24:30;11.20;99.90
14471;DHT22;7321;50.802;4.336;2023-02-03T03:27:08;11.20;99.90
14471;DHT22;7321;50.802;4.336;2023-02-03T03:32:09;11.10;99.90
14471;DHT22;7321;50.802;4.336;2023-02-03T03:34:35;11.00;99.90
14471;DHT22;7321;50.802;4.336;2023-02-03T03:39:55;11.00;99.90
14471;DHT22;7321;50.802;4.336;2023-02-03T03:48:33;11.10;99.90
14471;DHT22;7321;50.802;4.336;2023-02-03T03:51:05;11.00;99.90
14471;DHT22;7321;50.802;4.336;2023-02-03T03:53:35;10.90;99.90
14471;DHT22;7321;50.802;4.336;2023-02-03T03:56:05;11.00;99.90
14471;DHT22;7321;50.802;4.336;2023-02-03T03:58:32;11.00;99.90
14471;DHT22;7321;50.802;4.336;2023-02-03T04:01:01;11.00;99.90
14471;DHT22;7321;50.802;4.336;2023-02-03T04:03:44;11.00;99.90
14471;DHT22;7321;50.802;4.336;2023-02-03T04:06:11;11.20;99.90
14471;DHT22;7321;50.802;4.336;2023-02-03T04:08:37;11.30;99.90
14471;DHT22;7321;50.802;4.336;2023-02-03T04:11:04;11.10;99.90
14471;DHT22;7321;50.802;4.336;2023-02-03T04:13:30;11.30;99.90
14471;DHT22;7321;50.802;4.336;2023-02-03T04:15:56;11.30;99.90
14471;DHT22;7321;50.802;4.336;2023-02-03T04:18:22;11.20;99.90
14471;DHT22;7321;50.802;4.336;2023-02-03T04:20:48;11.20;99.90
14471;DHT22;7321;50.802;4.336;2023-02-03T04:23:14;11.20;99.90
14471;DHT22;7321;50.802;4.336;2023-02-03T04:25:39;11.30;99.90
14471;DHT22;7321;50.802;4.336;2023-02-03T04:28:05;11.30;99.90
14471;DHT22;7321;50.802;4.336;2023-02-03T04:30:31;11.40;99.90
14471;DHT22;7321;50.802;4.336;2023-02-03T04:32:57;11.30;99.90
14471;DHT22;7321;50.802;4.336;2023-02-03T04:35:23;11.20;99.90
14471;DHT22;7321;50.802;4.336;2023-02-03T04:37:49;11.30;99.90
14471;DHT22;7321;50.802;4.336;2023-02-03T04:40:15;11.40;99.90
14471;DHT22;7321;50.802;4.336;2023-02-03T04:42:41;11.40;99.90
14471;DHT22;7321;50.802;4.336;2023-02-03T04:45:09;11.30;99.90
14471;DHT22;7321;50.802;4.336;2023-02-03T04:47:40;11.30;99.90
14471;DHT22;7321;50.802;4.336;2023-02-03T04:50:06;11.30;99.90
14471;DHT22;7321;50.802;4.336;2023-02-03T04:52:32;11.30;99.90
14471;DHT22;7321;50.802;4.336;2023-02-03T04:54:58;11.30;99.90
14471;DHT22;7321;50.802;4.336;2023-02-03T04:57:24;11.30;99.90
14471;DHT22;7321;50.802;4.336;2023-02-03T04:59:50;11.20;99.90
14471;DHT22;7321;50.802;4.336;2023-02-03T05:02:16;11.20;99.90
14471;DHT22;7321;50.802;4.336;2023-02-03T05:04:41;11.10;99.90
14471;DHT22;7321;50.802;4.336;2023-02-03T05:07:08;11.00;99.90
14471;DHT22;7321;50.802;4.336;2023-02-03T05:09:34;11.10;99.90
14471;DHT22;7321;50.802;4.336;2023-02-03T05:12:00;11.10;99.90
14471;DHT22;7321;50.802;4.336;2023-02-03T05:14:26;11.00;99.90
14471;DHT22;7321;50.802;4.336;2023-02-03T05:16:51;11.10;99.90
14471;DHT22;7321;50.802;4.336;2023-02-03T05:19:17;11.10;99.90
14471;DHT22;7321;50.802;4.336;2023-02-03T05:21:43;11.10;99.90
14471;DHT22;7321;50.802;4.336;2023-02-03T05:24:09;11.00;99.90
14471;DHT22;7321;50.802;4.336;2023-02-03T05:26:35;11.00;99.90
14471;DHT22;7321;50.802;4.336;2023-02-03T05:29:01;11.10;99.90
14471;DHT22;7321;50.802;4.336;2023-02-03T05:31:28;11.10;99.90
14471;DHT22;7321;50.802;4.336;2023-02-03T05:33:53;11.10;99.90
14471;DHT22;7321;50.802;4.336;2023-02-03T05:36:19;11.20;99.90
14471;DHT22;7321;50.802;4.336;2023-02-03T05:38:45;11.10;99.90
14471;DHT22;7321;50.802;4.336;2023-02-03T05:41:11;11.10;99.90
14471;DHT22;7321;50.802;4.336;2023-02-03T05:43:56;11.20;99.90
14471;DHT22;7321;50.802;4.336;2023-02-03T05:46:22;11.40;99.90
14471;DHT22;7321;50.802;4.336;2023-02-03T05:48:48;11.30;99.90
14471;DHT22;7321;50.802;4.336;2023-02-03T05:51:14;11.10;99.90
14471;DHT22;7321;50.802;4.336;2023-02-03T05:53:40;11.20;99.90
14471;DHT22;7321;50.802;4.336;2023-02-03T05:56:06;11.10;99.90
14471;DHT22;7321;50.802;4.336;2023-02-03T05:58:32;11.00;99.90
14471;DHT22;7321;50.802;4.336;2023-02-03T06:00:57;10.90;99.90
14471;DHT22;7321;50.802;4.336;2023-02-03T06:03:23;11.00;99.90
14471;DHT22;7321;50.802;4.336;2023-02-03T06:05:49;11.00;99.90
14471;DHT22;7321;50.802;4.336;2023-02-03T06:08:15;11.00;99.90
14471;DHT22;7321;50.802;4.336;2023-02-03T06:10:41;11.00;99.90
14471;DHT22;7321;50.802;4.336;2023-02-03T06:13:12;11.00;99.90
14471;DHT22;7321;50.802;4.336;2023-02-03T06:15:38;11.00;99.90
14471;DHT22;7321;50.802;4.336;2023-02-03T06:18:04;11.10;99.90
14471;DHT22;7321;50.802;4.336;2023-02-03T06:20:36;11.10;99.90
14471;DHT22;7321;50.802;4.336;2023-02-03T06:23:02;11.20;99.90
14471;DHT22;7321;50.802;4.336;2023-02-03T06:25:28;11.20;99.90
14471;DHT22;7321;50.802;4.336;2023-02-03T06:27:56;11.30;99.90
14471;DHT22;7321;50.802;4.336;2023-02-03T06:30:22;11.30;99.90
14471;DHT22;7321;50.802;4.336;2023-02-03T06:32:48;11.30;99.90
14471;DHT22;7321;50.802;4.336;2023-02-03T06:35:14;11.30;99.90
14471;DHT22;7321;50.802;4.336;2023-02-03T06:37:41;11.30;99.90
14471;DHT22;7321;50.802;4.336;2023-02-03T06:40:08;11.30;99.90
14471;DHT22;7321;50.802;4.336;2023-02-03T06:42:34;11.30;99.90
14471;DHT22;7321;50.802;4.336;2023-02-03T06:45:00;11.30;99.90
14471;DHT22;7321;50.802;4.336;2023-02-03T06:47:25;11.20;99.90
14471;DHT22;7321;50.802;4.336;2023-02-03T06:49:54;11.20;99.90
14471;DHT22;7321;50.802;4.336;2023-02-03T06:52:20;11.10;99.90
14471;DHT22;7321;50.802;4.336;2023-02-03T06:54:46;11.20;99.90
14471;DHT22;7321;50.802;4.336;2023-02-03T06:57:12;11.20;99.90
14471;DHT22;7321;50.802;4.336;2023-02-03T06:59:38;11.30;99.90
14471;DHT22;7321;50.802;4.336;2023-02-03T07:02:03;11.10;99.90
14471;DHT22;7321;50.802;4.336;2023-02-03T07:04:29;11.10;99.90
14471;DHT22;7321;50.802;4.336;2023-02-03T07:06:56;11.10;99.90
14471;DHT22;7321;50.802;4.336;2023-02-03T07:09:22;11.10;99.90
14471;DHT22;7321;50.802;4.336;2023-02-03T07:11:48;11.10;99.90
14471;DHT22;7321;50.802;4.336;2023-02-03T07:14:17;11.20;99.90
14471;DHT22;7321;50.802;4.336;2023-02-03T07:16:43;11.10;99.90
14471;DHT22;7321;50.802;4.336;2023-02-03T07:19:09;11.10;99.90
14471;DHT22;7321;50.802;4.336;2023-02-03T07:21:35;11.30;99.90
14471;DHT22;7321;50.802;4.336;2023-02-03T07:24:00;11.20;99.90
14471;DHT22;7321;50.802;4.336;2023-02-03T07:26:27;11.30;99.90
14471;DHT22;7321;50.802;4.336;2023-02-03T07:28:53;11.30;99.90
14471;DHT22;7321;50.802;4.336;2023-02-03T07:31:19;11.30;99.90
14471;DHT22;7321;50.802;4.336;2023-02-03T07:33:45;11.30;99.90
14471;DHT22;7321;50.802;4.336;2023-02-03T07:36:11;11.30;99.90
14471;DHT22;7321;50.802;4.336;2023-02-03T07:38:37;11.20;99.90
14471;DHT22;7321;50.802;4.336;2023-02-03T07:41:04;11.30;99.90
14471;DHT22;7321;50.802;4.336;2023-02-03T07:43:30;11.40;99.90
14471;DHT22;7321;50.802;4.336;2023-02-03T07:45:56;11.30;99.90
14471;DHT22;7321;50.802;4.336;2023-02-03T07:48:22;11.40;99.90
14471;DHT22;7321;50.802;4.336;2023-02-03T07:50:48;11.30;99.90
14471;DHT22;7321;50.802;4.336;2023-02-03T07:53:15;11.30;99.90
14471;DHT22;7321;50.802;4.336;2023-02-03T07:55:41;11.30;99.90
14471;DHT22;7321;50.802;4.336;2023-02-03T07:58:07;11.30;99.90
14471;DHT22;7321;50.802;4.336;2023-02-03T08:00:33;11.40;99.90
14471;DHT22;7321;50.802;4.336;2023-02-03T08:03:00;11.50;99.90
14471;DHT22;7321;50.802;4.336;2023-02-03T08:05:25;11.40;99.90
14471;DHT22;7321;50.802;4.336;2023-02-03T08:07:51;11.50;99.90
14471;DHT22;7321;50.802;4.336;2023-02-03T08:10:17;11.40;99.90
14471;DHT22;7321;50.802;4.336;2023-02-03T08:12:44;11.30;99.90
14471;DHT22;7321;50.802;4.336;2023-02-03T08:15:12;11.40;99.90
14471;DHT22;7321;50.802;4.336;2023-02-03T08:17:38;11.40;99.90
14471;DHT22;7321;50.802;4.336;2023-02-03T08:20:09;11.50;99.90
14471;DHT22;7321;50.802;4.336;2023-02-03T08:22:35;11.40;99.90
14471;DHT22;7321;50.802;4.336;2023-02-03T08:25:01;11.30;99.90
14471;DHT22;7321;50.802;4.336;2023-02-03T08:27:30;11.40;99.90
14471;DHT22;7321;50.802;4.336;2023-02-03T08:29:56;11.50;99.90
14471;DHT22;7321;50.802;4.336;2023-02-03T08:32:22;11.50;99.90
14471;DHT22;7321;50.802;4.336;2023-02-03T08:34:48;11.50;99.90
14471;DHT22;7321;50.802;4.336;2023-02-03T08:37:16;11.50;99.90
14471;DHT22;7321;50.802;4.336;2023-02-03T08:39:42;11.40;99.90
14471;DHT22;7321;50.802;4.336;2023-02-03T08:42:08;11.30;99.90
14471;DHT22;7321;50.802;4.336;2023-02-03T08:44:35;11.40;99.90
14471;DHT22;7321;50.802;4.336;2023-02-03T08:47:01;11.40;99.90
14471;DHT22;7321;50.802;4.336;2023-02-03T08:49:28;11.40;99.90
14471;DHT22;7321;50.802;4.336;2023-02-03T08:51:55;11.50;99.90
14471;DHT22;7321;50.802;4.336;2023-02-03T08:54:22;11.60;99.90
14471;DHT22;7321;50.802;4.336;2023-02-03T08:56:48;11.50;99.90
14471;DHT22;7321;50.802;4.336;2023-02-03T08:59:14;11.50;99.90
14471;DHT22;7321;50.802;4.336;2023-02-03T09:01:40;11.60;99.90
14471;DHT22;7321;50.802;4.336;2023-02-03T09:04:09;11.70;99.90
14471;DHT22;7321;50.802;4.336;2023-02-03T09:06:35;11.70;99.90
14471;DHT22;7321;50.802;4.336;2023-02-03T09:09:02;11.60;99.90
14471;DHT22;7321;50.802;4.336;2023-02-03T09:11:28;11.70;99.90
14471;DHT22;7321;50.802;4.336;2023-02-03T09:13:53;11.90;99.90
14471;DHT22;7321;50.802;4.336;2023-02-03T09:16:21;11.80;99.90
14471;DHT22;7321;50.802;4.336;2023-02-03T09:18:47;11.60;99.90
14471;DHT22;7321;50.802;4.336;2023-02-03T09:21:14;11.70;99.90
14471;DHT22;7321;50.802;4.336;2023-02-03T09:23:41;11.70;99.90
14471;DHT22;7321;50.802;4.336;2023-02-03T09:26:10;11.70;99.90
14471;DHT22;7321;50.802;4.336;2023-02-03T09:28:36;11.70;99.90
14471;DHT22;7321;50.802;4.336;2023-02-03T09:31:10;11.70;99.90
14471;DHT22;7321;50.802;4.336;2023-02-03T09:33:36;11.70;99.90
14471;DHT22;7321;50.802;4.336;2023-02-03T09:36:02;11.80;99.90
14471;DHT22;7321;50.802;4.336;2023-02-03T09:38:28;11.90;99.90
14471;DHT22;7321;50.802;4.336;2023-02-03T09:46:18;11.70;99.90
14471;DHT22;7321;50.802;4.336;2023-02-03T09:49:06;11.60;99.90
14471;DHT22;7321;50.802;4.336;2023-02-03T09:51:47;11.60;99.90
14471;DHT22;7321;50.802;4.336;2023-02-03T09:54:29;11.60;99.90
14471;DHT22;7321;50.802;4.336;2023-02-03T09:56:58;11.60;99.90
14471;DHT22;7321;50.802;4.336;2023-02-03T09:59:26;11.50;99.90
14471;DHT22;7321;50.802;4.336;2023-02-03T10:01:58;11.60;99.90
14471;DHT22;7321;50.802;4.336;2023-02-03T10:04:33;11.60;99.90
14471;DHT22;7321;50.802;4.336;2023-02-03T10:07:10;11.70;99.90
14471;DHT22;7321;50.802;4.336;2023-02-03T10:10:03;11.80;99.90
14471;DHT22;7321;50.802;4.336;2023-02-03T10:15:55;11.80;99.90
14471;DHT22;7321;50.802;4.336;2023-02-03T10:18:29;11.90;99.90
14471;DHT22;7321;50.802;4.336;2023-02-03T10:21:39;12.00;99.90
14471;DHT22;7321;50.802;4.336;2023-02-03T10:24:08;12.00;99.90
14471;DHT22;7321;50.802;4.336;2023-02-03T10:26:37;11.90;99.90
14471;DHT22;7321;50.802;4.336;2023-02-03T10:31:43;11.90;99.90
14471;DHT22;7321;50.802;4.336;2023-02-03T10:34:13;11.90;99.90
14471;DHT22;7321;50.802;4.336;2023-02-03T10:36:55;12.10;99.90
14471;DHT22;7321;50.802;4.336;2023-02-03T10:39:41;12.10;99.90
14471;DHT22;7321;50.802;4.336;2023-02-03T10:42:10;12.20;99.90
14471;DHT22;7321;50.802;4.336;2023-02-03T10:44:42;12.30;99.90
14471;DHT22;7321;50.802;4.336;2023-02-03T10:47:33;12.20;99.90
14471;DHT22;7321;50.802;4.336;2023-02-03T10:50:15;12.20;99.90
14471;DHT22;7321;50.802;4.336;2023-02-03T10:52:42;12.20;99.90
14471;DHT22;7321;50.802;4.336;2023-02-03T10:55:28;12.30;99.90
14471;DHT22;7321;50.802;4.336;2023-02-03T10:57:56;12.20;99.90
14471;DHT22;7321;50.802;4.336;2023-02-03T11:00:31;12.20;99.90
14471;DHT22;7321;50.802;4.336;2023-02-03T11:05:35;12.30;99.90
14471;DHT22;7321;50.802;4.336;2023-02-03T11:08:01;12.20;99.90
14471;DHT22;7321;50.802;4.336;2023-02-03T11:13:20;12.10;99.90
14471;DHT22;7321;50.802;4.336;2023-02-03T11:16:06;12.10;99.90
14471;DHT22;7321;50.802;4.336;2023-02-03T11:24:29;12.00;99.90
14471;DHT22;7321;50.802;4.336;2023-02-03T11:27:02;12.00;99.90
14471;DHT22;7321;50.802;4.336;2023-02-03T11:29:39;12.00;99.90
14471;DHT22;7321;50.802;4.336;2023-02-03T11:32:26;12.00;99.90
14471;DHT22;7321;50.802;4.336;2023-02-03T11:35:18;12.00;99.90
14471;DHT22;7321;50.802;4.336;2023-02-03T11:37:47;12.00;99.90
14471;DHT22;7321;50.802;4.336;2023-02-03T11:43:01;12.40;99.90
14471;DHT22;7321;50.802;4.336;2023-02-03T11:45:37;12.30;99.90
14471;DHT22;7321;50.802;4.336;2023-02-03T11:48:28;12.20;99.90
14471;DHT22;7321;50.802;4.336;2023-02-03T12:18:30;12.30;99.90
14471;DHT22;7321;50.802;4.336;2023-02-03T12:27:19;12.40;99.90
14471;DHT22;7321;50.802;4.336;2023-02-03T12:30:14;12.40;99.90
14471;DHT22;7321;50.802;4.336;2023-02-03T12:32:53;12.40;99.90
14471;DHT22;7321;50.802;4.336;2023-02-03T12:35:33;12.40;99.90
14471;DHT22;7321;50.802;4.336;2023-02-03T12:38:18;12.50;99.90
14471;DHT22;7321;50.802;4.336;2023-02-03T12:40:55;12.50;99.90
14471;DHT22;7321;50.802;4.336;2023-02-03T12:43:30;12.40;99.90
14471;DHT22;7321;50.802;4.336;2023-02-03T12:46:21;12.30;99.90
14471;DHT22;7321;50.802;4.336;2023-02-03T12:51:46;12.40;99.90
14471;DHT22;7321;50.802;4.336;2023-02-03T12:55:35;12.40;99.90
14471;DHT22;7321;50.802;4.336;2023-02-03T12:57:55;12.40;99.90
14471;DHT22;7321;50.802;4.336;2023-02-03T13:00:47;12.60;99.90
14471;DHT22;7321;50.802;4.336;2023-02-03T13:08:36;12.60;99.90
14471;DHT22;7321;50.802;4.336;2023-02-03T13:14:21;12.80;99.90
14471;DHT22;7321;50.802;4.336;2023-02-03T13:16:52;12.80;99.90
14471;DHT22;7321;50.802;4.336;2023-02-03T13:19:26;12.90;99.90
14471;DHT22;7321;50.802;4.336;2023-02-03T13:21:56;12.70;99.90
14471;DHT22;7321;50.802;4.336;2023-02-03T13:24:24;12.70;99.90
14471;DHT22;7321;50.802;4.336;2023-02-03T13:30:38;12.90;99.90
14471;DHT22;7321;50.802;4.336;2023-02-03T13:32:56;13.00;99.90
14471;DHT22;7321;50.802;4.336;2023-02-03T13:41:23;13.00;99.90
14471;DHT22;7321;50.802;4.336;2023-02-03T13:43:53;13.10;99.90
14471;DHT22;7321;50.802;4.336;2023-02-03T13:48:47;13.20;99.90
14471;DHT22;7321;50.802;4.336;2023-02-03T13:53:46;13.30;99.90
14471;DHT22;7321;50.802;4.336;2023-02-03T13:56:20;13.30;99.90
14471;DHT22;7321;50.802;4.336;2023-02-03T14:03:59;12.90;99.90
14471;DHT22;7321;50.802;4.336;2023-02-03T14:14:54;12.90;99.90
14471;DHT22;7321;50.802;4.336;2023-02-03T14:20:02;12.90;99.90
14471;DHT22;7321;50.802;4.336;2023-02-03T14:22:32;12.90;99.90
14471;DHT22;7321;50.802;4.336;2023-02-03T14:25:04;12.80;99.90
14471;DHT22;7321;50.802;4.336;2023-02-03T14:27:31;12.90;99.90
14471;DHT22;7321;50.802;4.336;2023-02-03T14:35:20;13.10;99.90
14471;DHT22;7321;50.802;4.336;2023-02-03T14:38:06;13.10;99.90
14471;DHT22;7321;50.802;4.336;2023-02-03T14:40:58;13.10;99.90
14471;DHT22;7321;50.802;4.336;2023-02-03T14:43:42;13.00;99.90
14471;DHT22;7321;50.802;4.336;2023-02-03T14:54:51;12.90;99.90
14471;DHT22;7321;50.802;4.336;2023-02-03T14:57:42;12.70;99.90
14471;DHT22;7321;50.802;4.336;2023-02-03T15:00:24;12.60;99.90
14471;DHT22;7321;50.802;4.336;2023-02-03T15:03:22;12.70;99.90
14471;DHT22;7321;50.802;4.336;2023-02-03T15:05:56;12.70;99.90
14471;DHT22;7321;50.802;4.336;2023-02-03T15:13:50;12.60;99.90
14471;DHT22;7321;50.802;4.336;2023-02-03T15:16:21;12.50;99.90
14471;DHT22;7321;50.802;4.336;2023-02-03T15:19:18;12.60;99.90
14471;DHT22;7321;50.802;4.336;2023-02-03T15:21:45;12.80;99.90
14471;DHT22;7321;50.802;4.336;2023-02-03T15:24:16;12.70;99.90
14471;DHT22;7321;50.802;4.336;2023-02-03T15:26:57;12.60;99.90
14471;DHT22;7321;50.802;4.336;2023-02-03T15:29:31;12.60;99.90
14471;DHT22;7321;50.802;4.336;2023-02-03T15:32:05;12.70;99.90
14471;DHT22;7321;50.802;4.336;2023-02-03T15:37:57;12.70;99.90
14471;DHT22;7321;50.802;4.336;2023-02-03T15:40:01;12.70;99.90
14471;DHT22;7321;50.802;4.336;2023-02-03T15:45:38;12.70;99.90
14471;DHT22;7321;50.802;4.336;2023-02-03T15:48:18;12.70;99.90
14471;DHT22;7321;50.802;4.336;2023-02-03T15:51:07;12.70;99.90
14471;DHT22;7321;50.802;4.336;2023-02-03T15:59:04;12.50;99.90
14471;DHT22;7321;50.802;4.336;2023-02-03T16:01:31;12.60;99.90
14471;DHT22;7321;50.802;4.336;2023-02-03T16:03:58;12.80;99.90
14471;DHT22;7321;50.802;4.336;2023-02-03T16:06:33;12.70;99.90
14471;DHT22;7321;50.802;4.336;2023-02-03T16:09:04;12.80;99.90
14471;DHT22;7321;50.802;4.336;2023-02-03T16:11:38;12.80;99.90
14471;DHT22;7321;50.802;4.336;2023-02-03T16:14:06;12.70;99.90
14471;DHT22;7321;50.802;4.336;2023-02-03T16:16:37;12.80;99.90
14471;DHT22;7321;50.802;4.336;2023-02-03T16:19:12;13.00;99.90
14471;DHT22;7321;50.802;4.336;2023-02-03T16:21:55;13.10;99.90
14471;DHT22;7321;50.802;4.336;2023-02-03T16:24:40;13.10;99.90
14471;DHT22;7321;50.802;4.336;2023-02-03T16:27:31;13.10;99.90
14471;DHT22;7321;50.802;4.336;2023-02-03T16:36:09;13.10;99.90
14471;DHT22;7321;50.802;4.336;2023-02-03T16:38:55;13.20;99.90
14471;DHT22;7321;50.802;4.336;2023-02-03T16:41:40;13.10;99.90
14471;DHT22;7321;50.802;4.336;2023-02-03T16:44:25;13.10;99.90
14471;DHT22;7321;50.802;4.336;2023-02-03T16:47:27;13.10;99.90
14471;DHT22;7321;50.802;4.336;2023-02-03T16:50:20;13.00;99.90
14471;DHT22;7321;50.802;4.336;2023-02-03T16:53:05;13.00;99.90
14471;DHT22;7321;50.802;4.336;2023-02-03T16:55:31;13.00;99.90
14471;DHT22;7321;50.802;4.336;2023-02-03T16:57:57;13.10;99.90
14471;DHT22;7321;50.802;4.336;2023-02-03T17:00:23;13.00;99.90
14471;DHT22;7321;50.802;4.336;2023-02-03T17:02:50;13.00;99.90
14471;DHT22;7321;50.802;4.336;2023-02-03T17:05:16;12.70;99.90
14471;DHT22;7321;50.802;4.336;2023-02-03T17:07:42;12.70;99.90
14471;DHT22;7321;50.802;4.336;2023-02-03T17:10:09;12.70;99.90
14471;DHT22;7321;50.802;4.336;2023-02-03T17:12:35;12.70;99.90
14471;DHT22;7321;50.802;4.336;2023-02-03T17:15:05;12.80;99.90
14471;DHT22;7321;50.802;4.336;2023-02-03T17:17:32;12.80;99.90
14471;DHT22;7321;50.802;4.336;2023-02-03T17:20:00;12.80;99.90
14471;DHT22;7321;50.802;4.336;2023-02-03T17:22:26;12.80;99.90
14471;DHT22;7321;50.802;4.336;2023-02-03T17:24:52;12.90;99.90
14471;DHT22;7321;50.802;4.336;2023-02-03T17:27:19;12.90;99.90
14471;DHT22;7321;50.802;4.336;2023-02-03T17:29:45;12.90;99.90
14471;DHT22;7321;50.802;4.336;2023-02-03T17:32:14;12.90;99.90
14471;DHT22;7321;50.802;4.336;2023-02-03T17:34:42;12.80;99.90
14471;DHT22;7321;50.802;4.336;2023-02-03T17:37:08;12.90;99.90
14471;DHT22;7321;50.802;4.336;2023-02-03T17:39:34;12.80;99.90
14471;DHT22;7321;50.802;4.336;2023-02-03T17:42:00;12.90;99.90
14471;DHT22;7321;50.802;4.336;2023-02-03T17:44:26;12.70;99.90
14471;DHT22;7321;50.802;4.336;2023-02-03T17:46:51;12.80;99.90
14471;DHT22;7321;50.802;4.336;2023-02-03T17:49:17;12.70;99.90
14471;DHT22;7321;50.802;4.336;2023-02-03T17:51:43;12.60;99.90
14471;DHT22;7321;50.802;4.336;2023-02-03T17:54:10;12.70;99.90
14471;DHT22;7321;50.802;4.336;2023-02-03T17:56:36;12.60;99.90
14471;DHT22;7321;50.802;4.336;2023-02-03T17:59:04;12.60;99.90
14471;DHT22;7321;50.802;4.336;2023-02-03T18:01:30;12.60;99.90
14471;DHT22;7321;50.802;4.336;2023-02-03T18:03:58;12.60;99.90
14471;DHT22;7321;50.802;4.336;2023-02-03T18:06:26;12.60;99.90
14471;DHT22;7321;50.802;4.336;2023-02-03T18:08:53;12.70;99.90
14471;DHT22;7321;50.802;4.336;2023-02-03T18:11:19;12.70;99.90
14471;DHT22;7321;50.802;4.336;2023-02-03T18:13:49;12.70;99.90
14471;DHT22;7321;50.802;4.336;2023-02-03T18:16:17;12.80;99.90
14471;DHT22;7321;50.802;4.336;2023-02-03T18:18:44;12.70;99.90
14471;DHT22;7321;50.802;4.336;2023-02-03T18:21:13;12.80;99.90
14471;DHT22;7321;50.802;4.336;2023-02-03T18:23:39;12.80;99.90
14471;DHT22;7321;50.802;4.336;2023-02-03T18:26:06;12.80;99.90
14471;DHT22;7321;50.802;4.336;2023-02-03T18:28:32;12.80;99.90
14471;DHT22;7321;50.802;4.336;2023-02-03T18:31:01;12.90;99.90
14471;DHT22;7321;50.802;4.336;2023-02-03T18:33:27;12.80;99.90
14471;DHT22;7321;50.802;4.336;2023-02-03T18:35:55;12.80;99.90
14471;DHT22;7321;50.802;4.336;2023-02-03T18:38:23;12.80;99.90
14471;DHT22;7321;50.802;4.336;2023-02-03T18:40:49;12.80;99.90
14471;DHT22;7321;50.802;4.336;2023-02-03T18:43:15;12.80;99.90
14471;DHT22;7321;50.802;4.336;2023-02-03T18:45:41;12.70;99.90
14471;DHT22;7321;50.802;4.336;2023-02-03T18:48:07;12.70;99.90
14471;DHT22;7321;50.802;4.336;2023-02-03T18:50:33;12.80;99.90
14471;DHT22;7321;50.802;4.336;2023-02-03T18:52:58;12.70;99.90